< < Back
Terminal Aerodrome Forecast


Current Version              Previous Versions:   1  2  3  4  5  6  7  8  9  

Terminal Aerodrome Forecast

300
FTUS42 KCAE 012300
TAFAGS
TAF
KAGS 012336Z 0200/0224 14003KT P6SM SCT250
     FM020600 00000KT 6SM BR SKC
     FM020900 00000KT 2SM BR SCT002
     FM021300 VRB04KT P6SM SCT050=

Latest METAR

240
SAUS70 KWBC 020400 RRD
MTRAGS
METAR KAGS 020353Z 00000KT 9SM CLR 16/16 A3003 RMK AO2 SLP168
T01610156


USA.gov is the U.S. government's official web portal to all federal, state and local government web resources and services.